sensor_id;sensor_type;location;lat;lon;timestamp;temperature;humidity
39067;DHT22;24821;51.988;6.020;2023-04-07T00:00:52;10.00;99.90
39067;DHT22;24821;51.988;6.020;2023-04-07T00:03:17;10.00;99.90
39067;DHT22;24821;51.988;6.020;2023-04-07T00:05:43;10.00;99.90
39067;DHT22;24821;51.988;6.020;2023-04-07T00:08:08;10.00;99.90
39067;DHT22;24821;51.988;6.020;2023-04-07T00:10:34;10.00;99.90
39067;DHT22;24821;51.988;6.020;2023-04-07T00:13:00;10.00;99.90
39067;DHT22;24821;51.988;6.020;2023-04-07T00:15:26;10.00;99.90
39067;DHT22;24821;51.988;6.020;2023-04-07T00:17:52;10.00;99.90
39067;DHT22;24821;51.988;6.020;2023-04-07T00:20:17;10.00;99.90
39067;DHT22;24821;51.988;6.020;2023-04-07T00:22:43;10.00;99.90
39067;DHT22;24821;51.988;6.020;2023-04-07T00:25:08;10.00;99.90
39067;DHT22;24821;51.988;6.020;2023-04-07T00:27:35;10.10;99.90
39067;DHT22;24821;51.988;6.020;2023-04-07T00:30:00;10.10;99.90
39067;DHT22;24821;51.988;6.020;2023-04-07T00:32:26;10.10;99.90
39067;DHT22;24821;51.988;6.020;2023-04-07T00:34:51;10.10;99.90
39067;DHT22;24821;51.988;6.020;2023-04-07T00:37:17;10.10;99.90
39067;DHT22;24821;51.988;6.020;2023-04-07T00:39:43;10.10;99.90
39067;DHT22;24821;51.988;6.020;2023-04-07T00:42:09;10.10;99.90
39067;DHT22;24821;51.988;6.020;2023-04-07T00:44:35;10.20;99.90
39067;DHT22;24821;51.988;6.020;2023-04-07T00:47:00;10.10;99.90
39067;DHT22;24821;51.988;6.020;2023-04-07T00:49:26;10.10;99.90
39067;DHT22;24821;51.988;6.020;2023-04-07T00:51:59;10.10;99.90
39067;DHT22;24821;51.988;6.020;2023-04-07T00:54:25;10.10;99.90
39067;DHT22;24821;51.988;6.020;2023-04-07T00:56:51;10.10;99.90
39067;DHT22;24821;51.988;6.020;2023-04-07T00:59:18;10.10;99.90
39067;DHT22;24821;51.988;6.020;2023-04-07T01:01:54;10.10;99.90
39067;DHT22;24821;51.988;6.020;2023-04-07T01:04:29;10.20;99.90
39067;DHT22;24821;51.988;6.020;2023-04-07T01:07:00;10.10;99.90
39067;DHT22;24821;51.988;6.020;2023-04-07T01:09:39;10.10;99.90
39067;DHT22;24821;51.988;6.020;2023-04-07T01:12:20;10.20;99.90
39067;DHT22;24821;51.988;6.020;2023-04-07T01:14:50;10.20;99.90
39067;DHT22;24821;51.988;6.020;2023-04-07T01:17:20;10.10;99.90
39067;DHT22;24821;51.988;6.020;2023-04-07T01:19:52;10.10;99.90
39067;DHT22;24821;51.988;6.020;2023-04-07T01:22:24;10.10;99.90
39067;DHT22;24821;51.988;6.020;2023-04-07T01:30:43;10.10;99.90
39067;DHT22;24821;51.988;6.020;2023-04-07T01:33:10;10.10;99.90
39067;DHT22;24821;51.988;6.020;2023-04-07T01:35:38;10.00;99.90
39067;DHT22;24821;51.988;6.020;2023-04-07T01:38:04;10.00;99.90
39067;DHT22;24821;51.988;6.020;2023-04-07T01:40:32;10.00;99.90
39067;DHT22;24821;51.988;6.020;2023-04-07T01:42:59;10.00;99.90
39067;DHT22;24821;51.988;6.020;2023-04-07T01:45:25;9.90;99.90
39067;DHT22;24821;51.988;6.020;2023-04-07T01:47:52;9.90;99.90
39067;DHT22;24821;51.988;6.020;2023-04-07T01:50:19;9.90;99.90
39067;DHT22;24821;51.988;6.020;2023-04-07T01:52:46;9.90;99.90
39067;DHT22;24821;51.988;6.020;2023-04-07T01:55:12;9.90;99.90
39067;DHT22;24821;51.988;6.020;2023-04-07T01:57:37;9.90;99.90
39067;DHT22;24821;51.988;6.020;2023-04-07T02:00:03;9.90;99.90
39067;DHT22;24821;51.988;6.020;2023-04-07T02:02:29;9.90;99.90
39067;DHT22;24821;51.988;6.020;2023-04-07T02:05:02;9.90;99.90
39067;DHT22;24821;51.988;6.020;2023-04-07T02:10:13;10.00;99.90
39067;DHT22;24821;51.988;6.020;2023-04-07T02:12:40;9.90;99.90
39067;DHT22;24821;51.988;6.020;2023-04-07T02:15:10;9.90;99.90
39067;DHT22;24821;51.988;6.020;2023-04-07T02:17:39;10.00;99.90
39067;DHT22;24821;51.988;6.020;2023-04-07T02:20:07;10.00;99.90
39067;DHT22;24821;51.988;6.020;2023-04-07T02:22:34;10.00;99.90
39067;DHT22;24821;51.988;6.020;2023-04-07T02:25:00;10.00;99.90
39067;DHT22;24821;51.988;6.020;2023-04-07T02:27:26;10.00;99.90
39067;DHT22;24821;51.988;6.020;2023-04-07T02:29:51;9.90;99.90
39067;DHT22;24821;51.988;6.020;2023-04-07T02:32:17;10.00;99.90
39067;DHT22;24821;51.988;6.020;2023-04-07T02:34:43;10.00;99.90
39067;DHT22;24821;51.988;6.020;2023-04-07T02:37:08;10.00;99.90
39067;DHT22;24821;51.988;6.020;2023-04-07T02:39:34;10.00;99.90
39067;DHT22;24821;51.988;6.020;2023-04-07T02:41:59;10.00;99.90
39067;DHT22;24821;51.988;6.020;2023-04-07T02:44:25;10.00;99.90
39067;DHT22;24821;51.988;6.020;2023-04-07T02:46:50;9.90;99.90
39067;DHT22;24821;51.988;6.020;2023-04-07T02:49:16;10.00;99.90
39067;DHT22;24821;51.988;6.020;2023-04-07T02:51:41;10.00;99.90
39067;DHT22;24821;51.988;6.020;2023-04-07T02:54:07;9.90;99.90
39067;DHT22;24821;51.988;6.020;2023-04-07T02:56:32;9.90;99.90
39067;DHT22;24821;51.988;6.020;2023-04-07T02:58:58;9.90;99.90
39067;DHT22;24821;51.988;6.020;2023-04-07T03:01:24;9.90;99.90
39067;DHT22;24821;51.988;6.020;2023-04-07T03:03:49;9.90;99.90
39067;DHT22;24821;51.988;6.020;2023-04-07T03:06:15;9.90;99.90
39067;DHT22;24821;51.988;6.020;2023-04-07T03:08:40;9.90;99.90
39067;DHT22;24821;51.988;6.020;2023-04-07T03:11:06;9.90;99.90
39067;DHT22;24821;51.988;6.020;2023-04-07T03:13:32;9.90;99.90
39067;DHT22;24821;51.988;6.020;2023-04-07T03:15:57;9.90;99.90
39067;DHT22;24821;51.988;6.020;2023-04-07T03:18:23;9.90;99.90
39067;DHT22;24821;51.988;6.020;2023-04-07T03:20:48;10.00;99.90
39067;DHT22;24821;51.988;6.020;2023-04-07T03:23:14;9.90;99.90
39067;DHT22;24821;51.988;6.020;2023-04-07T03:25:40;9.90;99.90
39067;DHT22;24821;51.988;6.020;2023-04-07T03:28:05;9.90;99.90
39067;DHT22;24821;51.988;6.020;2023-04-07T03:30:31;9.90;99.90
39067;DHT22;24821;51.988;6.020;2023-04-07T03:32:57;9.90;99.90
39067;DHT22;24821;51.988;6.020;2023-04-07T03:35:22;9.90;99.90
39067;DHT22;24821;51.988;6.020;2023-04-07T03:37:48;9.90;99.90
39067;DHT22;24821;51.988;6.020;2023-04-07T03:40:14;9.90;99.90
39067;DHT22;24821;51.988;6.020;2023-04-07T03:42:39;9.90;99.90
39067;DHT22;24821;51.988;6.020;2023-04-07T03:45:05;9.80;99.90
39067;DHT22;24821;51.988;6.020;2023-04-07T03:47:31;9.80;99.90
39067;DHT22;24821;51.988;6.020;2023-04-07T03:49:57;9.90;99.90
39067;DHT22;24821;51.988;6.020;2023-04-07T03:52:22;9.80;99.90
39067;DHT22;24821;51.988;6.020;2023-04-07T03:54:48;9.80;99.90
39067;DHT22;24821;51.988;6.020;2023-04-07T03:57:13;9.80;99.90
39067;DHT22;24821;51.988;6.020;2023-04-07T03:59:39;9.80;99.90
39067;DHT22;24821;51.988;6.020;2023-04-07T04:02:04;9.80;99.90
39067;DHT22;24821;51.988;6.020;2023-04-07T04:04:30;9.80;99.90
39067;DHT22;24821;51.988;6.020;2023-04-07T04:06:56;9.80;99.90
39067;DHT22;24821;51.988;6.020;2023-04-07T04:09:21;9.80;99.90
39067;DHT22;24821;51.988;6.020;2023-04-07T04:11:48;9.80;99.90
39067;DHT22;24821;51.988;6.020;2023-04-07T04:14:13;9.80;99.90
39067;DHT22;24821;51.988;6.020;2023-04-07T04:16:39;9.80;99.90
39067;DHT22;24821;51.988;6.020;2023-04-07T04:19:04;9.80;99.90
39067;DHT22;24821;51.988;6.020;2023-04-07T04:21:30;9.80;99.90
39067;DHT22;24821;51.988;6.020;2023-04-07T04:23:56;9.80;99.90
39067;DHT22;24821;51.988;6.020;2023-04-07T04:26:21;9.80;99.90
39067;DHT22;24821;51.988;6.020;2023-04-07T04:28:50;9.90;99.90
39067;DHT22;24821;51.988;6.020;2023-04-07T04:31:16;9.90;99.90
39067;DHT22;24821;51.988;6.020;2023-04-07T04:33:41;9.90;99.90
39067;DHT22;24821;51.988;6.020;2023-04-07T04:36:07;9.90;99.90
39067;DHT22;24821;51.988;6.020;2023-04-07T04:38:32;9.90;99.90
39067;DHT22;24821;51.988;6.020;2023-04-07T04:40:58;9.90;99.90
39067;DHT22;24821;51.988;6.020;2023-04-07T04:43:23;9.90;99.90
39067;DHT22;24821;51.988;6.020;2023-04-07T04:45:49;9.90;99.90
39067;DHT22;24821;51.988;6.020;2023-04-07T04:48:15;9.90;99.90
39067;DHT22;24821;51.988;6.020;2023-04-07T04:50:41;9.90;99.90
39067;DHT22;24821;51.988;6.020;2023-04-07T04:53:08;9.90;99.90
39067;DHT22;24821;51.988;6.020;2023-04-07T04:55:34;9.90;99.90
39067;DHT22;24821;51.988;6.020;2023-04-07T04:58:00;9.90;99.90
39067;DHT22;24821;51.988;6.020;2023-04-07T05:00:26;9.90;99.90
39067;DHT22;24821;51.988;6.020;2023-04-07T05:02:51;9.90;99.90
39067;DHT22;24821;51.988;6.020;2023-04-07T05:05:17;9.90;99.90
39067;DHT22;24821;51.988;6.020;2023-04-07T05:07:42;9.90;99.90
39067;DHT22;24821;51.988;6.020;2023-04-07T05:10:08;9.90;99.90
39067;DHT22;24821;51.988;6.020;2023-04-07T05:12:34;9.90;99.90
39067;DHT22;24821;51.988;6.020;2023-04-07T05:14:59;9.90;99.90
39067;DHT22;24821;51.988;6.020;2023-04-07T05:17:25;9.90;99.90
39067;DHT22;24821;51.988;6.020;2023-04-07T05:19:51;9.90;99.90
39067;DHT22;24821;51.988;6.020;2023-04-07T05:22:16;9.90;99.90
39067;DHT22;24821;51.988;6.020;2023-04-07T05:24:42;9.90;99.90
39067;DHT22;24821;51.988;6.020;2023-04-07T05:27:07;9.90;99.90
39067;DHT22;24821;51.988;6.020;2023-04-07T05:29:33;9.90;99.90
39067;DHT22;24821;51.988;6.020;2023-04-07T05:31:58;9.90;99.90
39067;DHT22;24821;51.988;6.020;2023-04-07T05:34:26;9.90;99.90
39067;DHT22;24821;51.988;6.020;2023-04-07T05:36:52;9.90;99.90
39067;DHT22;24821;51.988;6.020;2023-04-07T05:39:17;9.90;99.90
39067;DHT22;24821;51.988;6.020;2023-04-07T05:41:43;9.80;99.90
39067;DHT22;24821;51.988;6.020;2023-04-07T05:44:08;9.80;99.90
39067;DHT22;24821;51.988;6.020;2023-04-07T05:46:34;9.90;99.90
39067;DHT22;24821;51.988;6.020;2023-04-07T05:48:59;9.80;99.90
39067;DHT22;24821;51.988;6.020;2023-04-07T05:51:25;9.90;99.90
39067;DHT22;24821;51.988;6.020;2023-04-07T05:53:51;9.80;99.90
39067;DHT22;24821;51.988;6.020;2023-04-07T05:56:16;9.90;99.90
39067;DHT22;24821;51.988;6.020;2023-04-07T05:58:42;9.90;99.90
39067;DHT22;24821;51.988;6.020;2023-04-07T06:01:07;9.90;99.90
39067;DHT22;24821;51.988;6.020;2023-04-07T06:03:33;9.90;99.90
39067;DHT22;24821;51.988;6.020;2023-04-07T06:05:58;9.90;99.90
39067;DHT22;24821;51.988;6.020;2023-04-07T06:08:24;9.90;99.90
39067;DHT22;24821;51.988;6.020;2023-04-07T06:10:50;9.90;99.90
39067;DHT22;24821;51.988;6.020;2023-04-07T06:13:15;9.80;99.90
39067;DHT22;24821;51.988;6.020;2023-04-07T06:15:41;9.90;99.90
39067;DHT22;24821;51.988;6.020;2023-04-07T06:18:06;9.80;99.90
39067;DHT22;24821;51.988;6.020;2023-04-07T06:20:32;9.90;99.90
39067;DHT22;24821;51.988;6.020;2023-04-07T06:22:58;9.90;99.90
39067;DHT22;24821;51.988;6.020;2023-04-07T06:25:23;9.90;99.90
39067;DHT22;24821;51.988;6.020;2023-04-07T06:27:49;9.90;99.90
39067;DHT22;24821;51.988;6.020;2023-04-07T06:30:15;9.90;99.90
39067;DHT22;24821;51.988;6.020;2023-04-07T06:32:40;9.90;99.90
39067;DHT22;24821;51.988;6.020;2023-04-07T06:35:06;10.00;99.90
39067;DHT22;24821;51.988;6.020;2023-04-07T06:37:32;10.00;99.90
39067;DHT22;24821;51.988;6.020;2023-04-07T06:39:58;10.10;99.90
39067;DHT22;24821;51.988;6.020;2023-04-07T06:42:23;10.10;99.90
39067;DHT22;24821;51.988;6.020;2023-04-07T06:44:49;10.10;99.90
39067;DHT22;24821;51.988;6.020;2023-04-07T06:47:14;10.10;99.90
39067;DHT22;24821;51.988;6.020;2023-04-07T06:49:40;10.20;99.90
39067;DHT22;24821;51.988;6.020;2023-04-07T06:52:06;10.20;99.90
39067;DHT22;24821;51.988;6.020;2023-04-07T06:54:31;10.30;99.90
39067;DHT22;24821;51.988;6.020;2023-04-07T06:56:57;10.30;99.90
39067;DHT22;24821;51.988;6.020;2023-04-07T06:59:22;10.40;99.90
39067;DHT22;24821;51.988;6.020;2023-04-07T07:01:48;10.40;99.90
39067;DHT22;24821;51.988;6.020;2023-04-07T07:04:14;10.40;99.90
39067;DHT22;24821;51.988;6.020;2023-04-07T07:06:39;10.40;99.90
39067;DHT22;24821;51.988;6.020;2023-04-07T07:09:05;10.50;99.90
39067;DHT22;24821;51.988;6.020;2023-04-07T07:11:30;10.60;99.90
39067;DHT22;24821;51.988;6.020;2023-04-07T07:13:56;10.60;99.90
39067;DHT22;24821;51.988;6.020;2023-04-07T07:16:21;10.60;99.90
39067;DHT22;24821;51.988;6.020;2023-04-07T07:18:50;10.70;99.90
39067;DHT22;24821;51.988;6.020;2023-04-07T07:21:17;10.70;99.90
39067;DHT22;24821;51.988;6.020;2023-04-07T07:23:43;10.70;99.90
39067;DHT22;24821;51.988;6.020;2023-04-07T07:26:09;10.80;99.90
39067;DHT22;24821;51.988;6.020;2023-04-07T07:28:35;10.80;99.90
39067;DHT22;24821;51.988;6.020;2023-04-07T07:31:10;10.80;99.90
39067;DHT22;24821;51.988;6.020;2023-04-07T07:33:38;10.90;99.90
39067;DHT22;24821;51.988;6.020;2023-04-07T07:36:05;10.80;99.90
39067;DHT22;24821;51.988;6.020;2023-04-07T07:38:30;10.80;99.90
39067;DHT22;24821;51.988;6.020;2023-04-07T07:40:56;10.80;99.90
39067;DHT22;24821;51.988;6.020;2023-04-07T07:43:21;10.80;99.90
39067;DHT22;24821;51.988;6.020;2023-04-07T07:45:47;10.80;99.90
39067;DHT22;24821;51.988;6.020;2023-04-07T07:48:12;10.80;99.90
39067;DHT22;24821;51.988;6.020;2023-04-07T07:50:38;10.80;99.90
39067;DHT22;24821;51.988;6.020;2023-04-07T07:53:03;10.90;99.90
39067;DHT22;24821;51.988;6.020;2023-04-07T07:55:29;10.90;99.90
39067;DHT22;24821;51.988;6.020;2023-04-07T07:57:55;10.90;99.90
39067;DHT22;24821;51.988;6.020;2023-04-07T08:00:20;10.90;99.90
39067;DHT22;24821;51.988;6.020;2023-04-07T08:02:48;10.90;99.90
39067;DHT22;24821;51.988;6.020;2023-04-07T08:05:13;11.00;99.90
39067;DHT22;24821;51.988;6.020;2023-04-07T08:07:39;11.00;99.90
39067;DHT22;24821;51.988;6.020;2023-04-07T08:10:07;11.00;99.90
39067;DHT22;24821;51.988;6.020;2023-04-07T08:12:33;11.00;99.90
39067;DHT22;24821;51.988;6.020;2023-04-07T08:14:58;11.00;99.90
39067;DHT22;24821;51.988;6.020;2023-04-07T08:17:24;11.00;99.90
39067;DHT22;24821;51.988;6.020;2023-04-07T08:19:50;10.90;99.90
39067;DHT22;24821;51.988;6.020;2023-04-07T08:22:16;10.90;99.90
39067;DHT22;24821;51.988;6.020;2023-04-07T08:24:44;10.90;99.90
39067;DHT22;24821;51.988;6.020;2023-04-07T08:27:09;11.00;99.90
39067;DHT22;24821;51.988;6.020;2023-04-07T08:29:35;11.00;99.90
39067;DHT22;24821;51.988;6.020;2023-04-07T08:32:00;11.00;99.90
39067;DHT22;24821;51.988;6.020;2023-04-07T08:34:26;11.00;99.90
39067;DHT22;24821;51.988;6.020;2023-04-07T08:36:52;11.10;99.90
39067;DHT22;24821;51.988;6.020;2023-04-07T08:39:17;11.10;99.90
39067;DHT22;24821;51.988;6.020;2023-04-07T08:41:44;11.20;99.90
39067;DHT22;24821;51.988;6.020;2023-04-07T08:44:12;11.30;99.90
39067;DHT22;24821;51.988;6.020;2023-04-07T08:46:40;11.40;99.90
39067;DHT22;24821;51.988;6.020;2023-04-07T08:49:10;11.40;99.90
39067;DHT22;24821;51.988;6.020;2023-04-07T08:51:43;11.50;99.90
39067;DHT22;24821;51.988;6.020;2023-04-07T08:54:10;11.50;99.90
39067;DHT22;24821;51.988;6.020;2023-04-07T08:56:40;11.50;99.90
39067;DHT22;24821;51.988;6.020;2023-04-07T08:59:09;11.60;99.90
39067;DHT22;24821;51.988;6.020;2023-04-07T09:01:36;11.50;99.90
39067;DHT22;24821;51.988;6.020;2023-04-07T09:04:03;11.60;99.90
39067;DHT22;24821;51.988;6.020;2023-04-07T09:06:37;11.60;99.90
39067;DHT22;24821;51.988;6.020;2023-04-07T09:09:04;11.60;99.90
39067;DHT22;24821;51.988;6.020;2023-04-07T09:11:37;11.50;99.90
39067;DHT22;24821;51.988;6.020;2023-04-07T09:14:04;11.50;99.90
39067;DHT22;24821;51.988;6.020;2023-04-07T09:16:30;11.40;99.90
39067;DHT22;24821;51.988;6.020;2023-04-07T09:18:56;11.40;99.90
39067;DHT22;24821;51.988;6.020;2023-04-07T09:21:22;11.40;99.90
39067;DHT22;24821;51.988;6.020;2023-04-07T09:23:48;11.40;99.90
39067;DHT22;24821;51.988;6.020;2023-04-07T09:28:43;11.40;99.90
39067;DHT22;24821;51.988;6.020;2023-04-07T09:31:09;11.40;99.90
39067;DHT22;24821;51.988;6.020;2023-04-07T09:33:35;11.50;99.90
39067;DHT22;24821;51.988;6.020;2023-04-07T09:36:02;11.50;99.90
39067;DHT22;24821;51.988;6.020;2023-04-07T09:38:35;11.50;99.90
39067;DHT22;24821;51.988;6.020;2023-04-07T09:41:10;11.50;99.90
39067;DHT22;24821;51.988;6.020;2023-04-07T09:43:39;11.50;99.90
39067;DHT22;24821;51.988;6.020;2023-04-07T09:46:12;11.40;99.90
39067;DHT22;24821;51.988;6.020;2023-04-07T09:48:38;11.40;99.90
39067;DHT22;24821;51.988;6.020;2023-04-07T09:51:06;11.40;99.90
39067;DHT22;24821;51.988;6.020;2023-04-07T09:53:43;11.50;99.90
39067;DHT22;24821;51.988;6.020;2023-04-07T09:56:09;11.60;99.90
39067;DHT22;24821;51.988;6.020;2023-04-07T09:58:37;11.60;99.90
39067;DHT22;24821;51.988;6.020;2023-04-07T10:01:05;11.70;99.90
39067;DHT22;24821;51.988;6.020;2023-04-07T10:03:33;11.70;99.90
39067;DHT22;24821;51.988;6.020;2023-04-07T10:05:59;11.80;99.90
39067;DHT22;24821;51.988;6.020;2023-04-07T10:08:26;11.90;99.90
39067;DHT22;24821;51.988;6.020;2023-04-07T10:10:52;11.90;99.90
39067;DHT22;24821;51.988;6.020;2023-04-07T10:13:18;11.90;99.90
39067;DHT22;24821;51.988;6.020;2023-04-07T10:15:44;11.90;99.90
39067;DHT22;24821;51.988;6.020;2023-04-07T10:18:11;11.80;99.90
39067;DHT22;24821;51.988;6.020;2023-04-07T10:20:40;11.80;99.90
39067;DHT22;24821;51.988;6.020;2023-04-07T10:23:15;11.70;99.90
39067;DHT22;24821;51.988;6.020;2023-04-07T10:25:43;11.70;99.90
39067;DHT22;24821;51.988;6.020;2023-04-07T10:28:11;11.60;99.90
39067;DHT22;24821;51.988;6.020;2023-04-07T10:30:38;11.60;99.90
39067;DHT22;24821;51.988;6.020;2023-04-07T10:33:04;11.60;99.90
39067;DHT22;24821;51.988;6.020;2023-04-07T10:36:07;11.60;99.90
39067;DHT22;24821;51.988;6.020;2023-04-07T10:38:32;11.80;99.90
39067;DHT22;24821;51.988;6.020;2023-04-07T10:40:58;11.80;99.90
39067;DHT22;24821;51.988;6.020;2023-04-07T10:43:40;11.80;99.90
39067;DHT22;24821;51.988;6.020;2023-04-07T10:46:08;11.90;99.90
39067;DHT22;24821;51.988;6.020;2023-04-07T10:48:33;12.00;99.90
39067;DHT22;24821;51.988;6.020;2023-04-07T10:53:32;12.00;99.90
39067;DHT22;24821;51.988;6.020;2023-04-07T10:55:59;12.00;99.90
39067;DHT22;24821;51.988;6.020;2023-04-07T10:58:28;12.10;99.90
39067;DHT22;24821;51.988;6.020;2023-04-07T11:03:34;12.20;99.90
39067;DHT22;24821;51.988;6.020;2023-04-07T11:06:07;12.30;99.90
39067;DHT22;24821;51.988;6.020;2023-04-07T11:11:06;12.40;99.90
39067;DHT22;24821;51.988;6.020;2023-04-07T11:13:48;12.40;99.90
39067;DHT22;24821;51.988;6.020;2023-04-07T11:16:17;12.60;99.90
39067;DHT22;24821;51.988;6.020;2023-04-07T11:18:44;12.60;99.90
39067;DHT22;24821;51.988;6.020;2023-04-07T11:21:10;12.60;99.90
39067;DHT22;24821;51.988;6.020;2023-04-07T11:23:42;12.60;99.90
39067;DHT22;24821;51.988;6.020;2023-04-07T11:26:09;12.70;99.90
39067;DHT22;24821;51.988;6.020;2023-04-07T11:28:52;12.60;99.90
39067;DHT22;24821;51.988;6.020;2023-04-07T11:31:22;12.60;99.90
39067;DHT22;24821;51.988;6.020;2023-04-07T11:33:53;12.60;99.90
39067;DHT22;24821;51.988;6.020;2023-04-07T11:36:26;12.50;99.90
39067;DHT22;24821;51.988;6.020;2023-04-07T11:38:53;12.50;99.90
39067;DHT22;24821;51.988;6.020;2023-04-07T11:41:18;12.50;99.90
39067;DHT22;24821;51.988;6.020;2023-04-07T11:43:44;12.50;99.90
39067;DHT22;24821;51.988;6.020;2023-04-07T11:46:13;12.50;99.90
39067;DHT22;24821;51.988;6.020;2023-04-07T11:48:41;12.50;99.90
39067;DHT22;24821;51.988;6.020;2023-04-07T11:51:20;12.30;99.90
39067;DHT22;24821;51.988;6.020;2023-04-07T11:53:53;12.30;99.90
39067;DHT22;24821;51.988;6.020;2023-04-07T11:56:20;12.10;99.90
39067;DHT22;24821;51.988;6.020;2023-04-07T11:58:51;12.10;99.90
39067;DHT22;24821;51.988;6.020;2023-04-07T12:01:17;12.10;99.90
39067;DHT22;24821;51.988;6.020;2023-04-07T12:03:58;12.20;99.90
39067;DHT22;24821;51.988;6.020;2023-04-07T12:06:32;12.30;99.90
39067;DHT22;24821;51.988;6.020;2023-04-07T12:09:07;12.40;99.90
39067;DHT22;24821;51.988;6.020;2023-04-07T12:11:34;12.40;99.90
39067;DHT22;24821;51.988;6.020;2023-04-07T12:14:00;12.50;99.90
39067;DHT22;24821;51.988;6.020;2023-04-07T12:16:29;12.60;99.90
39067;DHT22;24821;51.988;6.020;2023-04-07T12:18:54;12.70;99.90
39067;DHT22;24821;51.988;6.020;2023-04-07T12:21:20;12.80;99.90
39067;DHT22;24821;51.988;6.020;2023-04-07T12:23:46;12.80;99.90
39067;DHT22;24821;51.988;6.020;2023-04-07T12:26:12;12.70;99.90
39067;DHT22;24821;51.988;6.020;2023-04-07T12:28:38;12.70;99.90
39067;DHT22;24821;51.988;6.020;2023-04-07T12:31:03;12.60;99.90
39067;DHT22;24821;51.988;6.020;2023-04-07T12:33:29;12.50;99.90
39067;DHT22;24821;51.988;6.020;2023-04-07T12:35:58;12.50;99.90
39067;DHT22;24821;51.988;6.020;2023-04-07T12:38:24;12.40;99.90
39067;DHT22;24821;51.988;6.020;2023-04-07T12:40:49;12.30;99.90
39067;DHT22;24821;51.988;6.020;2023-04-07T12:43:16;12.30;99.90
39067;DHT22;24821;51.988;6.020;2023-04-07T12:45:41;12.20;99.90
39067;DHT22;24821;51.988;6.020;2023-04-07T12:48:07;12.20;99.90
39067;DHT22;24821;51.988;6.020;2023-04-07T12:50:34;12.10;99.90
39067;DHT22;24821;51.988;6.020;2023-04-07T12:53:00;12.10;99.90
39067;DHT22;24821;51.988;6.020;2023-04-07T12:55:30;12.10;99.90
39067;DHT22;24821;51.988;6.020;2023-04-07T12:57:58;12.10;99.90
39067;DHT22;24821;51.988;6.020;2023-04-07T13:00:24;12.10;99.90
39067;DHT22;24821;51.988;6.020;2023-04-07T13:02:49;12.30;99.90
39067;DHT22;24821;51.988;6.020;2023-04-07T13:05:15;12.40;99.90
39067;DHT22;24821;51.988;6.020;2023-04-07T13:07:41;12.50;99.90
39067;DHT22;24821;51.988;6.020;2023-04-07T13:10:07;12.50;99.90
39067;DHT22;24821;51.988;6.020;2023-04-07T13:12:33;12.50;99.90
39067;DHT22;24821;51.988;6.020;2023-04-07T13:14:59;12.60;99.90
39067;DHT22;24821;51.988;6.020;2023-04-07T13:17:25;12.70;99.90
39067;DHT22;24821;51.988;6.020;2023-04-07T13:19:50;12.70;99.90
39067;DHT22;24821;51.988;6.020;2023-04-07T13:22:16;12.70;99.90
39067;DHT22;24821;51.988;6.020;2023-04-07T13:24:42;12.70;99.90
39067;DHT22;24821;51.988;6.020;2023-04-07T13:27:07;12.70;99.90
39067;DHT22;24821;51.988;6.020;2023-04-07T13:29:33;12.70;99.90
39067;DHT22;24821;51.988;6.020;2023-04-07T13:32:06;12.70;99.90
39067;DHT22;24821;51.988;6.020;2023-04-07T13:34:33;12.70;99.90
39067;DHT22;24821;51.988;6.020;2023-04-07T13:37:00;12.70;99.90
39067;DHT22;24821;51.988;6.020;2023-04-07T13:39:27;12.80;99.90
39067;DHT22;24821;51.988;6.020;2023-04-07T13:41:52;12.80;99.90
39067;DHT22;24821;51.988;6.020;2023-04-07T13:44:18;12.90;99.90
39067;DHT22;24821;51.988;6.020;2023-04-07T13:46:43;12.90;99.90
39067;DHT22;24821;51.988;6.020;2023-04-07T13:49:09;13.00;99.90
39067;DHT22;24821;51.988;6.020;2023-04-07T13:51:34;13.00;99.90
39067;DHT22;24821;51.988;6.020;2023-04-07T13:54:00;13.00;99.90
39067;DHT22;24821;51.988;6.020;2023-04-07T13:56:26;13.00;99.90
39067;DHT22;24821;51.988;6.020;2023-04-07T13:58:52;13.00;99.90
39067;DHT22;24821;51.988;6.020;2023-04-07T14:01:18;13.00;99.90
39067;DHT22;24821;51.988;6.020;2023-04-07T14:03:44;13.10;99.90
39067;DHT22;24821;51.988;6.020;2023-04-07T14:06:10;13.00;99.90
39067;DHT22;24821;51.988;6.020;2023-04-07T14:08:35;13.10;99.90
39067;DHT22;24821;51.988;6.020;2023-04-07T14:11:01;13.10;99.90
39067;DHT22;24821;51.988;6.020;2023-04-07T14:13:27;13.10;99.90
39067;DHT22;24821;51.988;6.020;2023-04-07T14:15:52;13.10;99.90
39067;DHT22;24821;51.988;6.020;2023-04-07T14:18:18;13.10;99.90
39067;DHT22;24821;51.988;6.020;2023-04-07T14:20:45;13.10;99.90
39067;DHT22;24821;51.988;6.020;2023-04-07T14:23:11;13.10;99.90
39067;DHT22;24821;51.988;6.020;2023-04-07T14:25:36;13.00;99.90
39067;DHT22;24821;51.988;6.020;2023-04-07T14:28:02;13.00;99.90
39067;DHT22;24821;51.988;6.020;2023-04-07T14:30:28;13.00;99.90
39067;DHT22;24821;51.988;6.020;2023-04-07T14:32:55;13.00;99.90
39067;DHT22;24821;51.988;6.020;2023-04-07T14:35:20;13.00;99.90
39067;DHT22;24821;51.988;6.020;2023-04-07T14:37:46;13.10;99.90
39067;DHT22;24821;51.988;6.020;2023-04-07T14:40:11;13.10;99.90
39067;DHT22;24821;51.988;6.020;2023-04-07T14:42:37;13.10;99.90
39067;DHT22;24821;51.988;6.020;2023-04-07T14:45:03;13.20;99.90
39067;DHT22;24821;51.988;6.020;2023-04-07T14:47:29;13.30;99.90
39067;DHT22;24821;51.988;6.020;2023-04-07T14:49:54;13.30;99.90
39067;DHT22;24821;51.988;6.020;2023-04-07T14:52:20;13.40;99.90
39067;DHT22;24821;51.988;6.020;2023-04-07T14:54:46;13.40;99.90
39067;DHT22;24821;51.988;6.020;2023-04-07T14:57:11;13.40;99.90
39067;DHT22;24821;51.988;6.020;2023-04-07T14:59:37;13.40;99.90
39067;DHT22;24821;51.988;6.020;2023-04-07T15:02:02;13.30;99.90
39067;DHT22;24821;51.988;6.020;2023-04-07T15:04:28;13.30;99.90
39067;DHT22;24821;51.988;6.020;2023-04-07T15:06:54;13.30;99.90
39067;DHT22;24821;51.988;6.020;2023-04-07T15:09:20;13.20;99.90
39067;DHT22;24821;51.988;6.020;2023-04-07T15:11:45;13.20;99.90
39067;DHT22;24821;51.988;6.020;2023-04-07T15:14:13;13.10;99.90
39067;DHT22;24821;51.988;6.020;2023-04-07T15:16:38;13.10;99.90
39067;DHT22;24821;51.988;6.020;2023-04-07T15:19:04;13.10;99.90
39067;DHT22;24821;51.988;6.020;2023-04-07T15:21:30;13.10;99.90
39067;DHT22;24821;51.988;6.020;2023-04-07T15:23:55;13.10;99.90
39067;DHT22;24821;51.988;6.020;2023-04-07T15:26:21;13.10;99.90
39067;DHT22;24821;51.988;6.020;2023-04-07T15:28:47;13.00;99.90
39067;DHT22;24821;51.988;6.020;2023-04-07T15:31:12;12.90;99.90
39067;DHT22;24821;51.988;6.020;2023-04-07T15:33:39;12.90;99.90
39067;DHT22;24821;51.988;6.020;2023-04-07T15:36:06;12.80;99.90
39067;DHT22;24821;51.988;6.020;2023-04-07T15:38:31;12.70;99.90
39067;DHT22;24821;51.988;6.020;2023-04-07T15:40:57;12.60;99.90
39067;DHT22;24821;51.988;6.020;2023-04-07T15:43:23;12.50;99.90
39067;DHT22;24821;51.988;6.020;2023-04-07T15:45:49;12.50;99.90
39067;DHT22;24821;51.988;6.020;2023-04-07T15:48:15;12.50;99.90
39067;DHT22;24821;51.988;6.020;2023-04-07T15:50:41;12.50;99.90